Terminal Aerodrome Forecast
Issued by NWS

Home | Current Version | Previous Version | Text Only | Print | Product List | Glossary On
Versions: 1 2 3 4 5 6 7 8 9 10 11 12
000
FTUS41 KRNK 231120
TAFBCB
TAF
KBCB 231120Z 2312/2412 00000KT 5SM BR SKC
     FM231300 VRB03KT P6SM FEW035 SCT120
     FM231600 26003KT P6SM SCT050
     FM232300 00000KT P6SM SCT120
     FM241000 00000KT 2SM BR SCT005=

USA.gov is the U.S. government's official web portal to all federal, state and local government web resources and services.